createdAt,value
2018-08-17T00:01:50.702Z,19.60
2018-08-17T00:04:19.007Z,19.60
2018-08-17T00:06:47.306Z,19.60
2018-08-17T00:09:15.678Z,19.60
2018-08-17T00:11:44.164Z,19.50
2018-08-17T00:14:12.448Z,19.50
2018-08-17T00:16:40.771Z,19.50
2018-08-17T00:19:09.053Z,19.40
2018-08-17T00:21:37.259Z,19.40
2018-08-17T00:24:06.253Z,19.40
2018-08-17T00:26:34.579Z,19.30
2018-08-17T00:29:02.853Z,19.30
2018-08-17T00:31:31.091Z,19.30
2018-08-17T00:33:59.490Z,19.30
2018-08-17T00:36:27.832Z,19.30
2018-08-17T00:38:56.052Z,19.20
2018-08-17T00:41:24.447Z,19.20
2018-08-17T00:43:52.732Z,19.30
2018-08-17T00:46:21.038Z,19.30
2018-08-17T00:48:49.342Z,19.10
2018-08-17T00:51:17.604Z,19.20
2018-08-17T00:53:45.914Z,19.20
2018-08-17T00:56:14.208Z,19.10
2018-08-17T00:58:42.481Z,19.10
2018-08-17T01:01:10.812Z,19.10
2018-08-17T01:03:39.132Z,19.00
2018-08-17T01:06:07.486Z,19.00
2018-08-17T01:08:35.768Z,18.90
2018-08-17T01:11:04.143Z,18.80
2018-08-17T01:13:32.444Z,18.80
2018-08-17T01:16:00.721Z,18.80
2018-08-17T01:18:29.006Z,18.80
2018-08-17T01:20:57.308Z,18.80
2018-08-17T01:23:25.568Z,18.90
2018-08-17T01:25:53.803Z,18.80
2018-08-17T01:28:22.168Z,18.70
2018-08-17T01:30:50.483Z,18.70
2018-08-17T01:33:18.753Z,18.80
2018-08-17T01:35:47.020Z,18.70
2018-08-17T01:38:15.318Z,18.60
2018-08-17T01:40:43.607Z,18.60
2018-08-17T01:43:11.904Z,18.60
2018-08-17T01:45:40.155Z,18.70
2018-08-17T01:48:12.121Z,18.60
2018-08-17T01:50:40.498Z,18.70
2018-08-17T01:53:08.801Z,18.60
2018-08-17T01:55:37.069Z,18.70
2018-08-17T01:58:05.316Z,18.60
2018-08-17T02:00:33.608Z,18.60
2018-08-17T02:03:01.940Z,18.60
2018-08-17T02:05:30.298Z,18.70
2018-08-17T02:07:58.619Z,18.70
2018-08-17T02:10:26.813Z,18.60
2018-08-17T02:12:55.082Z,18.60
2018-08-17T02:15:23.339Z,18.60
2018-08-17T02:17:51.673Z,18.50
2018-08-17T02:20:19.951Z,18.40
2018-08-17T02:22:48.248Z,18.50
2018-08-17T02:25:16.569Z,18.60
2018-08-17T02:27:44.932Z,18.60
2018-08-17T02:30:13.283Z,18.60
2018-08-17T02:32:41.614Z,18.40
2018-08-17T02:35:09.943Z,18.40
2018-08-17T02:37:38.202Z,18.30
2018-08-17T02:40:07.515Z,18.30
2018-08-17T02:42:35.815Z,18.40
2018-08-17T02:45:04.882Z,18.30
2018-08-17T02:47:33.093Z,18.30
2018-08-17T02:50:01.439Z,18.40
2018-08-17T02:52:29.778Z,18.30
2018-08-17T02:54:59.073Z,18.20
2018-08-17T02:57:27.364Z,18.30
2018-08-17T02:59:55.651Z,18.30
2018-08-17T03:02:23.993Z,18.30
2018-08-17T03:04:52.303Z,18.20
2018-08-17T03:07:20.672Z,18.20
2018-08-17T03:09:48.990Z,18.10
2018-08-17T03:12:22.730Z,18.20
2018-08-17T03:14:51.035Z,18.20
2018-08-17T03:17:19.307Z,18.20
2018-08-17T03:19:47.590Z,18.30
2018-08-17T03:22:15.890Z,18.30
2018-08-17T03:24:44.131Z,18.40
2018-08-17T03:27:12.415Z,18.40
2018-08-17T03:29:44.050Z,18.40
2018-08-17T03:32:12.374Z,18.50
2018-08-17T03:34:40.645Z,18.40
2018-08-17T03:37:09.075Z,18.30
2018-08-17T03:39:37.349Z,18.50
2018-08-17T03:42:05.655Z,18.50
2018-08-17T03:44:33.869Z,18.40
2018-08-17T03:47:02.132Z,18.40
2018-08-17T03:49:30.443Z,18.40
2018-08-17T03:51:58.858Z,18.40
2018-08-17T03:54:27.056Z,18.40
2018-08-17T03:56:55.388Z,18.30
2018-08-17T03:59:23.777Z,18.30
2018-08-17T04:01:52.094Z,18.20
2018-08-17T04:04:20.384Z,18.10
2018-08-17T04:06:48.657Z,18.10
2018-08-17T04:09:16.886Z,18.10
2018-08-17T04:11:45.187Z,18.00
2018-08-17T04:14:13.448Z,18.00
2018-08-17T04:16:44.997Z,18.00
2018-08-17T04:19:13.234Z,18.00
2018-08-17T04:21:41.507Z,18.00
2018-08-17T04:24:09.718Z,18.00
2018-08-17T04:26:37.990Z,18.10
2018-08-17T04:29:06.330Z,18.20
2018-08-17T04:31:34.586Z,18.10
2018-08-17T04:34:02.871Z,18.20
2018-08-17T04:36:31.223Z,18.20
2018-08-17T04:38:59.474Z,18.20
2018-08-17T04:41:27.741Z,18.20
2018-08-17T04:43:56.014Z,18.20
2018-08-17T04:46:24.265Z,18.30
2018-08-17T04:48:53.215Z,18.30
2018-08-17T04:51:21.564Z,18.40
2018-08-17T04:53:49.802Z,18.30
2018-08-17T04:56:18.094Z,18.40
2018-08-17T04:58:46.409Z,18.40
2018-08-17T05:01:14.685Z,18.30
2018-08-17T05:04:01.751Z,18.30
2018-08-17T05:06:30.633Z,18.40
2018-08-17T05:08:59.062Z,18.40
2018-08-17T05:11:27.303Z,18.30
2018-08-17T05:13:55.623Z,18.30
2018-08-17T05:16:23.931Z,18.30
2018-08-17T05:18:52.236Z,18.30
2018-08-17T05:21:20.591Z,18.30
2018-08-17T05:23:48.848Z,18.30
2018-08-17T05:26:17.175Z,18.20
2018-08-17T05:28:45.439Z,18.20
2018-08-17T05:31:13.743Z,18.30
2018-08-17T05:33:42.043Z,18.30
2018-08-17T05:36:10.368Z,18.30
2018-08-17T05:38:38.721Z,18.30
2018-08-17T05:41:06.972Z,18.40
2018-08-17T05:43:35.208Z,18.40
2018-08-17T05:46:03.582Z,18.60
2018-08-17T05:48:31.935Z,18.60
2018-08-17T05:51:00.342Z,18.60
2018-08-17T05:53:28.659Z,18.70
2018-08-17T05:55:56.929Z,18.70
2018-08-17T05:58:25.204Z,18.90
2018-08-17T06:00:53.529Z,19.00
2018-08-17T06:03:21.948Z,19.00
2018-08-17T06:05:50.234Z,19.00
2018-08-17T06:08:18.527Z,19.20
2018-08-17T06:10:46.843Z,19.20
2018-08-17T06:13:15.124Z,19.30
2018-08-17T06:15:43.494Z,19.40
2018-08-17T06:18:11.780Z,19.60
2018-08-17T06:20:40.086Z,19.70
2018-08-17T06:23:08.451Z,19.90
2018-08-17T06:25:36.753Z,19.90
2018-08-17T06:28:05.167Z,20.00
2018-08-17T06:30:33.438Z,20.10
2018-08-17T06:33:01.707Z,20.30
2018-08-17T06:35:30.157Z,20.40
2018-08-17T06:37:58.380Z,20.50
2018-08-17T06:40:26.808Z,20.80
2018-08-17T06:42:55.132Z,21.00
2018-08-17T06:45:23.471Z,21.10
2018-08-17T06:47:51.733Z,21.30
2018-08-17T06:50:19.992Z,21.50
2018-08-17T06:52:48.303Z,21.60
2018-08-17T06:55:16.618Z,21.80
2018-08-17T06:57:44.920Z,22.00
2018-08-17T07:00:15.143Z,22.10
2018-08-17T07:02:44.566Z,22.30
2018-08-17T07:05:12.727Z,22.40
2018-08-17T07:07:41.468Z,22.60
2018-08-17T07:10:11.608Z,22.80
2018-08-17T07:12:40.583Z,22.90
2018-08-17T07:15:09.163Z,23.10
2018-08-17T07:17:37.529Z,23.30
2018-08-17T07:20:06.918Z,23.60
2018-08-17T07:22:35.195Z,23.70
2018-08-17T07:25:03.709Z,23.80
2018-08-17T07:27:31.988Z,23.90
2018-08-17T07:30:00.886Z,24.00
2018-08-17T07:32:29.839Z,24.20
2018-08-17T07:34:58.182Z,24.40
2018-08-17T07:37:26.526Z,24.60
2018-08-17T07:39:54.900Z,24.90
2018-08-17T07:42:23.119Z,25.10
2018-08-17T07:44:51.397Z,25.30
2018-08-17T07:47:19.636Z,25.60
2018-08-17T07:49:47.923Z,25.90
2018-08-17T07:52:16.240Z,26.20
2018-08-17T07:54:44.557Z,26.40
2018-08-17T07:57:12.926Z,26.60
2018-08-17T07:59:41.168Z,26.90
2018-08-17T08:02:09.511Z,26.90
2018-08-17T08:04:37.782Z,27.00
2018-08-17T08:07:06.083Z,27.00
2018-08-17T08:09:34.403Z,27.10
2018-08-17T08:12:02.863Z,27.20
2018-08-17T08:14:31.115Z,27.30
2018-08-17T08:16:59.428Z,27.40
2018-08-17T08:19:27.713Z,27.60
2018-08-17T08:21:56.065Z,27.60
2018-08-17T08:24:24.876Z,27.70
2018-08-17T08:26:53.191Z,27.70
2018-08-17T08:29:21.561Z,27.70
2018-08-17T08:31:50.017Z,27.90
2018-08-17T08:34:18.313Z,28.00
2018-08-17T08:36:46.532Z,28.00
2018-08-17T08:39:14.789Z,28.10
2018-08-17T08:41:43.123Z,28.10
2018-08-17T08:44:11.488Z,28.30
2018-08-17T08:46:39.770Z,28.30
2018-08-17T08:49:08.047Z,28.30
2018-08-17T08:51:36.340Z,28.30
2018-08-17T08:54:04.714Z,28.40
2018-08-17T08:56:33.119Z,28.30
2018-08-17T08:59:01.375Z,28.20
2018-08-17T09:01:29.662Z,28.20
2018-08-17T09:03:57.983Z,28.30
2018-08-17T09:06:26.231Z,28.30
2018-08-17T09:08:54.580Z,28.40
2018-08-17T09:11:22.880Z,28.30
2018-08-17T09:13:51.200Z,28.40
2018-08-17T09:16:19.489Z,28.50
2018-08-17T09:18:47.767Z,28.60
2018-08-17T09:21:15.990Z,28.70
2018-08-17T09:23:44.296Z,28.70
2018-08-17T09:26:12.547Z,28.80
2018-08-17T09:28:40.823Z,28.90
2018-08-17T09:31:09.176Z,28.90
2018-08-17T09:33:37.706Z,28.80
2018-08-17T09:36:06.041Z,28.80
2018-08-17T09:38:35.173Z,28.90
2018-08-17T09:41:03.472Z,28.90
2018-08-17T09:43:31.746Z,28.90
2018-08-17T09:46:00.050Z,28.90
2018-08-17T09:48:28.335Z,28.90
2018-08-17T09:50:56.616Z,29.00
2018-08-17T09:53:24.844Z,29.00
2018-08-17T09:55:53.079Z,29.00
2018-08-17T09:58:21.311Z,29.10
2018-08-17T10:00:55.118Z,29.10
2018-08-17T10:03:28.709Z,29.00
2018-08-17T10:06:02.419Z,29.00
2018-08-17T10:08:32.554Z,29.10
2018-08-17T10:11:00.937Z,29.10
2018-08-17T10:13:29.254Z,29.20
2018-08-17T10:15:57.547Z,29.20
2018-08-17T10:18:30.874Z,29.30
2018-08-17T10:20:59.231Z,29.30
2018-08-17T10:23:27.518Z,29.40
2018-08-17T10:25:55.806Z,29.50
2018-08-17T10:28:24.430Z,29.50
2018-08-17T10:30:52.717Z,29.70
2018-08-17T10:33:21.179Z,29.80
2018-08-17T10:35:49.449Z,29.80
2018-08-17T10:38:17.818Z,29.80
2018-08-17T10:40:46.115Z,29.70
2018-08-17T10:43:14.396Z,29.80
2018-08-17T10:45:42.674Z,29.70
2018-08-17T10:48:11.268Z,29.80
2018-08-17T10:50:39.565Z,29.80
2018-08-17T10:53:07.882Z,29.80
2018-08-17T10:55:42.312Z,29.70
2018-08-17T10:58:12.638Z,29.60
2018-08-17T11:00:41.052Z,29.90
2018-08-17T11:03:09.499Z,30.00
2018-08-17T11:05:37.813Z,30.10
2018-08-17T11:08:06.157Z,30.30
2018-08-17T11:10:34.519Z,30.30
2018-08-17T11:13:02.839Z,30.40
2018-08-17T11:15:31.169Z,30.40
2018-08-17T11:17:59.462Z,30.40
2018-08-17T11:20:27.795Z,30.50
2018-08-17T11:22:56.110Z,30.50
2018-08-17T11:25:24.549Z,30.60
2018-08-17T11:27:53.096Z,30.70
2018-08-17T11:30:21.375Z,30.70
2018-08-17T11:32:49.684Z,30.90
2018-08-17T11:35:18.027Z,31.20
2018-08-17T11:37:46.346Z,31.30
2018-08-17T11:40:14.748Z,31.30
2018-08-17T11:42:45.331Z,31.50
2018-08-17T11:45:16.287Z,31.60
2018-08-17T11:47:45.141Z,31.50
2018-08-17T11:50:14.829Z,31.50
2018-08-17T11:52:50.806Z,31.50
2018-08-17T11:55:19.699Z,31.80
2018-08-17T11:57:48.082Z,32.10
2018-08-17T12:00:16.430Z,32.40
2018-08-17T12:02:45.102Z,32.40
2018-08-17T12:05:13.410Z,32.60
2018-08-17T12:07:42.900Z,32.70
2018-08-17T12:10:11.185Z,32.90
2018-08-17T12:12:40.509Z,32.80
2018-08-17T12:15:09.815Z,32.70
2018-08-17T12:17:38.153Z,32.60
2018-08-17T12:20:06.666Z,32.40
2018-08-17T12:22:34.930Z,32.20
2018-08-17T12:25:03.454Z,32.10
2018-08-17T12:27:32.117Z,31.80
2018-08-17T12:30:00.495Z,31.60
2018-08-17T12:32:28.801Z,31.40
2018-08-17T12:34:57.134Z,31.20
2018-08-17T12:37:25.505Z,31.10
2018-08-17T12:39:53.790Z,31.10
2018-08-17T12:42:22.102Z,30.80
2018-08-17T12:44:50.349Z,30.40
2018-08-17T12:47:18.993Z,29.90
2018-08-17T12:49:47.252Z,29.40
2018-08-17T12:52:15.619Z,29.20
2018-08-17T12:54:43.932Z,29.00
2018-08-17T12:57:12.231Z,28.80
2018-08-17T12:59:40.551Z,28.70
2018-08-17T13:02:08.939Z,28.30
2018-08-17T13:04:37.207Z,28.20
2018-08-17T13:07:05.494Z,28.10
2018-08-17T13:09:33.757Z,28.10
2018-08-17T13:12:03.203Z,28.00
2018-08-17T13:14:31.495Z,27.80
2018-08-17T13:17:00.996Z,27.90
2018-08-17T13:19:29.404Z,27.80
2018-08-17T13:21:58.005Z,27.70
2018-08-17T13:24:26.307Z,27.80
2018-08-17T13:27:57.786Z,28.00
2018-08-17T13:30:26.089Z,28.20
2018-08-17T13:32:54.331Z,28.10
2018-08-17T13:35:22.631Z,28.30
2018-08-17T13:37:50.875Z,28.50
2018-08-17T13:40:19.207Z,28.70
2018-08-17T13:42:47.514Z,28.80
2018-08-17T13:45:15.831Z,28.90
2018-08-17T13:47:44.095Z,28.90
2018-08-17T13:50:12.328Z,28.90
2018-08-17T13:53:43.869Z,28.90
2018-08-17T13:56:12.183Z,29.00
2018-08-17T13:58:40.422Z,29.10
2018-08-17T14:01:08.747Z,29.10
2018-08-17T14:03:37.034Z,29.10
2018-08-17T14:06:05.814Z,29.00
2018-08-17T14:08:34.125Z,29.00
2018-08-17T14:11:02.465Z,28.90
2018-08-17T14:13:30.788Z,28.80
2018-08-17T14:15:59.247Z,28.70
2018-08-17T14:18:27.586Z,28.80
2018-08-17T14:20:55.842Z,28.60
2018-08-17T14:23:24.262Z,28.70
2018-08-17T14:25:52.522Z,28.80
2018-08-17T14:28:20.892Z,29.00
2018-08-17T14:30:49.197Z,29.10
2018-08-17T14:33:17.499Z,28.90
2018-08-17T14:35:45.753Z,29.10
2018-08-17T14:38:14.170Z,29.20
2018-08-17T14:40:42.500Z,29.20
2018-08-17T14:43:10.734Z,29.30
2018-08-17T14:45:39.087Z,29.30
2018-08-17T14:48:07.515Z,29.40
2018-08-17T14:50:35.881Z,29.60
2018-08-17T14:53:04.202Z,29.70
2018-08-17T14:55:32.535Z,29.80
2018-08-17T14:58:00.838Z,30.00
2018-08-17T15:00:29.138Z,30.20
2018-08-17T15:02:57.453Z,30.40
2018-08-17T15:05:25.726Z,30.60
2018-08-17T15:07:53.975Z,30.60
2018-08-17T15:10:22.354Z,30.20
2018-08-17T15:12:50.734Z,30.30
2018-08-17T15:15:19.036Z,30.20
2018-08-17T15:17:47.421Z,30.10
2018-08-17T15:20:15.697Z,29.90
2018-08-17T15:22:44.035Z,29.80
2018-08-17T15:25:12.312Z,29.60
2018-08-17T15:27:40.939Z,29.50
2018-08-17T15:30:10.793Z,29.40
2018-08-17T15:32:39.570Z,29.50
2018-08-17T15:35:08.159Z,29.40
2018-08-17T15:37:36.748Z,29.30
2018-08-17T15:40:06.434Z,29.30
2018-08-17T15:42:34.817Z,29.30
2018-08-17T15:45:03.144Z,29.20
2018-08-17T15:47:33.449Z,29.20
2018-08-17T15:50:13.578Z,28.90
2018-08-17T15:52:42.363Z,28.90
2018-08-17T15:55:10.767Z,28.80
2018-08-17T15:57:39.279Z,28.60
2018-08-17T16:00:10.420Z,28.50
2018-08-17T16:02:38.628Z,28.40
2018-08-17T16:05:07.134Z,28.30
2018-08-17T16:07:35.403Z,28.30
2018-08-17T16:10:03.915Z,28.30
2018-08-17T16:12:32.187Z,28.20
2018-08-17T16:15:00.495Z,28.10
2018-08-17T16:17:28.837Z,28.10
2018-08-17T16:19:57.089Z,28.10
2018-08-17T16:22:25.351Z,28.10
2018-08-17T16:24:53.701Z,28.10
2018-08-17T16:27:21.906Z,28.10
2018-08-17T16:29:50.243Z,28.00
2018-08-17T16:32:18.685Z,28.00
2018-08-17T16:34:47.027Z,27.90
2018-08-17T16:37:15.317Z,27.80
2018-08-17T16:39:49.019Z,27.80
2018-08-17T16:42:25.459Z,27.70
2018-08-17T16:44:54.399Z,27.70
2018-08-17T16:47:22.767Z,27.60
2018-08-17T16:49:51.040Z,27.60
2018-08-17T16:52:19.382Z,27.50
2018-08-17T16:54:47.732Z,27.40
2018-08-17T16:57:16.084Z,27.30
2018-08-17T16:59:44.389Z,27.20
2018-08-17T17:02:12.720Z,27.10
2018-08-17T17:04:43.042Z,26.90
2018-08-17T17:07:11.287Z,26.90
2018-08-17T17:09:39.908Z,26.90
2018-08-17T17:12:13.088Z,26.70
2018-08-17T17:14:41.793Z,26.70
2018-08-17T17:17:10.141Z,26.60
2018-08-17T17:19:38.385Z,26.60
2018-08-17T17:22:06.735Z,26.60
2018-08-17T17:24:35.048Z,26.60
2018-08-17T17:27:03.285Z,26.50
2018-08-17T17:29:32.543Z,26.40
2018-08-17T17:32:00.925Z,26.40
2018-08-17T17:34:29.223Z,26.30
2018-08-17T17:37:00.831Z,26.20
2018-08-17T17:39:29.133Z,26.20
2018-08-17T17:41:57.512Z,26.10
2018-08-17T17:44:25.774Z,26.20
2018-08-17T17:46:54.135Z,26.00
2018-08-17T17:49:22.455Z,25.90
2018-08-17T17:51:50.705Z,25.70
2018-08-17T17:54:21.457Z,25.70
2018-08-17T17:56:55.084Z,25.60
2018-08-17T17:59:23.413Z,25.40
2018-08-17T18:01:51.793Z,25.30
2018-08-17T18:04:20.211Z,25.20
2018-08-17T18:06:48.591Z,25.20
2018-08-17T18:09:16.909Z,25.10
2018-08-17T18:11:45.235Z,25.00
2018-08-17T18:14:13.532Z,25.00
2018-08-17T18:16:41.991Z,24.80
2018-08-17T18:19:10.356Z,24.80
2018-08-17T18:21:38.729Z,24.70
2018-08-17T18:24:09.940Z,24.70
2018-08-17T18:26:38.317Z,24.60
2018-08-17T18:29:07.073Z,24.40
2018-08-17T18:31:35.545Z,24.40
2018-08-17T18:34:03.821Z,24.30
2018-08-17T18:36:32.152Z,24.20
2018-08-17T18:39:00.534Z,24.20
2018-08-17T18:41:28.879Z,24.20
2018-08-17T18:43:57.412Z,24.20
2018-08-17T18:46:26.022Z,24.10
2018-08-17T18:48:54.364Z,24.00
2018-08-17T18:51:22.678Z,23.90
2018-08-17T18:53:50.994Z,23.90
2018-08-17T18:56:19.277Z,23.90
2018-08-17T18:58:47.505Z,23.90
2018-08-17T19:01:15.806Z,23.90
2018-08-17T19:03:44.112Z,23.80
2018-08-17T19:06:12.390Z,23.70
2018-08-17T19:08:40.723Z,23.80
2018-08-17T19:11:09.175Z,23.70
2018-08-17T19:13:37.555Z,23.70
2018-08-17T19:16:05.924Z,23.60
2018-08-17T19:18:34.313Z,23.60
2018-08-17T19:21:07.859Z,23.60
2018-08-17T19:23:36.477Z,23.50
2018-08-17T19:26:04.908Z,23.50
2018-08-17T19:28:33.190Z,23.60
2018-08-17T19:31:01.456Z,23.70
2018-08-17T19:33:29.996Z,23.70
2018-08-17T19:35:58.341Z,23.70
2018-08-17T19:38:26.620Z,23.60
2018-08-17T19:40:54.898Z,23.40
2018-08-17T19:43:23.290Z,23.10
2018-08-17T19:45:51.579Z,22.80
2018-08-17T19:48:19.811Z,22.50
2018-08-17T19:50:48.117Z,22.20
2018-08-17T19:53:16.450Z,21.80
2018-08-17T19:55:44.743Z,21.60
2018-08-17T19:58:13.002Z,21.30
2018-08-17T20:00:41.244Z,21.00
2018-08-17T20:03:09.508Z,20.70
2018-08-17T20:05:37.821Z,20.50
2018-08-17T20:08:06.242Z,20.30
2018-08-17T20:10:34.547Z,20.20
2018-08-17T20:13:02.781Z,20.00
2018-08-17T20:15:31.056Z,19.80
2018-08-17T20:17:59.352Z,19.70
2018-08-17T20:20:27.656Z,19.50
2018-08-17T20:22:58.549Z,19.40
2018-08-17T20:25:26.868Z,19.40
2018-08-17T20:27:55.189Z,19.40
2018-08-17T20:30:24.497Z,19.30
2018-08-17T20:32:52.793Z,19.20
2018-08-17T20:35:21.151Z,19.10
2018-08-17T20:37:52.209Z,19.10
2018-08-17T20:40:20.827Z,19.00
2018-08-17T20:42:49.399Z,18.80
2018-08-17T20:45:17.725Z,18.80
2018-08-17T20:47:45.976Z,18.70
2018-08-17T20:50:16.365Z,18.90
2018-08-17T20:53:00.949Z,18.80
2018-08-17T20:55:29.484Z,18.80
2018-08-17T20:57:58.710Z,18.80
2018-08-17T21:00:28.454Z,18.70
2018-08-17T21:02:56.903Z,18.70
2018-08-17T21:05:25.302Z,18.70
2018-08-17T21:07:53.675Z,18.70
2018-08-17T21:10:22.228Z,18.70
2018-08-17T21:12:51.076Z,18.60
2018-08-17T21:15:20.194Z,18.70
2018-08-17T21:17:49.051Z,18.70
2018-08-17T21:20:17.473Z,18.60
2018-08-17T21:22:45.925Z,18.70
2018-08-17T21:25:14.292Z,18.70
2018-08-17T21:27:43.099Z,18.70
2018-08-17T21:30:11.824Z,18.70
2018-08-17T21:32:40.200Z,18.70
2018-08-17T21:35:08.638Z,18.70
2018-08-17T21:37:37.289Z,18.60
2018-08-17T21:40:07.486Z,18.60
2018-08-17T21:42:35.781Z,18.60
2018-08-17T21:45:04.461Z,18.50
2018-08-17T21:47:32.778Z,18.50
2018-08-17T21:50:08.263Z,18.50
2018-08-17T21:52:36.630Z,18.40
2018-08-17T21:55:05.050Z,18.30
2018-08-17T21:57:33.394Z,18.30
2018-08-17T22:00:01.788Z,18.40
2018-08-17T22:02:30.153Z,18.50
2018-08-17T22:04:58.589Z,18.40
2018-08-17T22:07:30.355Z,18.50
2018-08-17T22:09:58.694Z,18.40
2018-08-17T22:12:27.086Z,18.40
2018-08-17T22:14:55.373Z,18.30
2018-08-17T22:17:32.956Z,18.40
2018-08-17T22:20:01.463Z,18.30
2018-08-17T22:22:29.828Z,18.20
2018-08-17T22:24:59.150Z,18.10
2018-08-17T22:27:28.533Z,18.00
2018-08-17T22:29:58.049Z,18.00
2018-08-17T22:32:26.541Z,18.00
2018-08-17T22:34:55.336Z,18.20
2018-08-17T22:37:23.670Z,18.20
2018-08-17T22:39:51.988Z,18.10
2018-08-17T22:42:21.798Z,18.10
2018-08-17T22:44:50.520Z,18.10
2018-08-17T22:47:20.518Z,18.00
2018-08-17T22:49:49.483Z,18.00
2018-08-17T22:52:17.791Z,17.90
2018-08-17T22:54:51.488Z,18.00
2018-08-17T22:57:20.019Z,18.00
2018-08-17T23:00:02.419Z,18.00
2018-08-17T23:02:30.751Z,18.10
2018-08-17T23:04:59.061Z,18.00
2018-08-17T23:07:27.378Z,18.00
2018-08-17T23:09:55.619Z,18.00
2018-08-17T23:12:23.907Z,18.10
2018-08-17T23:14:52.509Z,18.10
2018-08-17T23:17:20.856Z,18.10
2018-08-17T23:19:49.137Z,18.10
2018-08-17T23:22:17.385Z,18.10
2018-08-17T23:24:45.838Z,18.10
2018-08-17T23:27:14.062Z,18.20
2018-08-17T23:29:42.521Z,18.10
2018-08-17T23:32:10.843Z,18.10
2018-08-17T23:34:39.086Z,18.00
2018-08-17T23:37:07.389Z,18.00
2018-08-17T23:39:42.240Z,18.10
2018-08-17T23:42:10.522Z,18.10
2018-08-17T23:44:38.846Z,18.00
2018-08-17T23:47:07.160Z,18.00
2018-08-17T23:49:35.502Z,18.00
2018-08-17T23:52:03.941Z,18.00
2018-08-17T23:54:32.263Z,18.00
2018-08-17T23:57:00.584Z,18.00
2018-08-17T23:59:28.926Z,17.90
